createdAt,value
2022-11-18T00:00:25.500Z,179.33
2022-11-18T00:05:25.455Z,180.10
2022-11-18T00:10:25.405Z,181.45
2022-11-18T00:15:31.416Z,180.67
2022-11-18T00:20:26.262Z,181.65
2022-11-18T00:25:25.189Z,181.26
2022-11-18T00:30:26.176Z,180.48
2022-11-18T00:35:25.074Z,182.63
2022-11-18T00:40:24.990Z,182.63
2022-11-18T00:45:24.930Z,182.43
2022-11-18T00:50:24.872Z,182.24
2022-11-18T00:55:24.799Z,181.45
2022-11-18T01:00:24.743Z,182.04
2022-11-18T01:05:43.724Z,182.24
2022-11-18T01:10:36.111Z,181.45
2022-11-18T01:15:36.095Z,181.26
2022-11-18T01:20:35.995Z,182.83
2022-11-18T01:25:35.991Z,183.82
2022-11-18T01:30:35.840Z,182.04
2022-11-18T01:35:35.820Z,183.62
2022-11-18T01:40:35.816Z,183.22
2022-11-18T01:45:35.700Z,183.42
2022-11-18T01:50:35.625Z,182.83
2022-11-18T01:55:35.546Z,183.22
2022-11-18T02:00:35.467Z,182.83
2022-11-18T02:05:35.434Z,181.65
2022-11-18T02:10:35.335Z,183.62
2022-11-18T02:15:35.294Z,182.43
2022-11-18T02:20:35.199Z,182.63
2022-11-18T02:25:35.157Z,183.62
2022-11-18T02:30:35.085Z,183.62
2022-11-18T02:35:35.018Z,182.43
2022-11-18T02:40:34.965Z,183.22
2022-11-18T02:45:34.929Z,183.22
2022-11-18T02:50:34.801Z,183.82
2022-11-18T02:55:34.756Z,183.82
2022-11-18T03:00:34.680Z,183.03
2022-11-18T03:05:34.631Z,183.62
2022-11-18T03:10:34.544Z,183.62
2022-11-18T03:15:34.580Z,184.22
2022-11-18T03:20:34.391Z,183.82
2022-11-18T03:25:34.355Z,183.62
2022-11-18T03:30:34.283Z,184.63
2022-11-18T03:35:34.239Z,184.02
2022-11-18T03:40:34.161Z,184.43
2022-11-18T03:45:34.122Z,183.82
2022-11-18T03:50:34.061Z,183.82
2022-11-18T03:55:34.910Z,183.62
2022-11-18T04:00:33.877Z,183.82
2022-11-18T04:05:33.897Z,183.22
2022-11-18T04:10:33.756Z,184.22
2022-11-18T04:15:33.741Z,184.22
2022-11-18T04:20:33.614Z,184.43
2022-11-18T04:25:33.589Z,183.22
2022-11-18T04:30:33.499Z,183.42
2022-11-18T04:35:33.461Z,183.42
2022-11-18T04:40:33.345Z,184.02
2022-11-18T04:45:33.303Z,184.02
2022-11-18T04:50:33.236Z,184.02
2022-11-18T04:55:33.171Z,183.62
2022-11-18T05:00:33.083Z,183.22
2022-11-18T05:05:33.033Z,183.03
2022-11-18T05:10:32.957Z,183.62
2022-11-18T05:15:47.409Z,183.42
2022-11-18T05:20:41.713Z,185.24
2022-11-18T05:25:39.742Z,184.02
2022-11-18T05:30:39.681Z,184.02
2022-11-18T05:35:39.600Z,183.62
2022-11-18T05:40:39.530Z,184.63
2022-11-18T05:45:39.481Z,184.22
2022-11-18T05:50:39.414Z,183.82
2022-11-18T05:55:39.355Z,184.22
2022-11-18T06:00:39.277Z,184.02
2022-11-18T06:05:39.205Z,184.43
2022-11-18T06:10:39.177Z,184.63
2022-11-18T06:15:39.067Z,184.83
2022-11-18T06:20:39.011Z,185.03
2022-11-18T06:25:38.957Z,185.03
2022-11-18T06:30:38.873Z,185.24
2022-11-18T06:35:38.818Z,185.03
2022-11-18T06:40:39.073Z,184.63
2022-11-18T06:45:39.909Z,185.24
2022-11-18T06:50:38.601Z,184.22
2022-11-18T06:55:38.560Z,184.22
2022-11-18T07:00:38.516Z,183.62
2022-11-18T07:05:38.403Z,184.83
2022-11-18T07:10:38.362Z,183.82
2022-11-18T07:15:38.302Z,183.62
2022-11-18T07:20:38.201Z,184.83
2022-11-18T07:25:42.527Z,184.63
2022-11-18T07:30:39.097Z,184.43
2022-11-18T07:35:38.016Z,183.22
2022-11-18T07:40:37.961Z,183.22
2022-11-18T07:45:37.908Z,182.83
2022-11-18T07:50:37.797Z,180.87
2022-11-18T07:55:37.777Z,181.84
2022-11-18T08:00:37.697Z,181.84
2022-11-18T08:05:37.686Z,181.26
2022-11-18T08:10:37.571Z,180.87
2022-11-18T08:15:37.508Z,179.52
2022-11-18T08:20:37.411Z,179.33
2022-11-18T08:25:37.369Z,178.95
2022-11-18T08:30:37.308Z,179.90
2022-11-18T08:35:37.224Z,179.90
2022-11-18T08:40:37.160Z,179.52
2022-11-18T08:45:37.121Z,178.57
2022-11-18T08:50:37.015Z,178.01
2022-11-18T08:55:36.989Z,178.01
2022-11-18T09:00:36.904Z,177.82
2022-11-18T09:05:36.838Z,177.82
2022-11-18T09:10:36.768Z,178.19
2022-11-18T09:15:36.740Z,177.26
2022-11-18T09:20:36.614Z,176.15
2022-11-18T09:25:36.588Z,175.60
2022-11-18T09:30:36.521Z,175.23
2022-11-18T09:35:36.449Z,174.15
2022-11-18T09:40:36.382Z,172.19
2022-11-18T09:45:36.338Z,171.84
2022-11-18T09:50:51.750Z,172.72
2022-11-18T09:55:37.186Z,171.49
2022-11-18T10:00:36.123Z,169.77
2022-11-18T10:05:36.042Z,169.26
2022-11-18T10:10:35.973Z,167.74
2022-11-18T10:15:35.910Z,166.42
2022-11-18T10:20:35.838Z,166.75
2022-11-18T10:25:35.796Z,163.99
2022-11-18T10:30:35.712Z,162.89
2022-11-18T10:35:35.665Z,155.82
2022-11-18T10:40:35.550Z,146.99
2022-11-18T10:45:35.522Z,139.69
2022-11-18T10:50:35.437Z,133.29
2022-11-18T10:55:35.408Z,128.72
2022-11-18T11:00:35.288Z,123.54
2022-11-18T11:05:35.277Z,118.59
2022-11-18T11:10:35.238Z,113.87
2022-11-18T11:15:35.113Z,108.94
2022-11-18T11:20:35.048Z,104.36
2022-11-18T11:30:37.830Z,104.49
2022-11-18T11:35:34.825Z,105.34
2022-11-18T11:40:34.790Z,106.87
2022-11-18T11:45:34.715Z,108.80
2022-11-18T11:50:34.639Z,110.44
2022-11-18T11:55:34.573Z,112.50
2022-11-18T12:00:34.498Z,114.25
2022-11-18T12:05:34.503Z,116.46
2022-11-18T12:10:34.371Z,116.70
2022-11-18T12:15:34.349Z,118.09
2022-11-18T12:20:34.218Z,119.51
2022-11-18T12:25:34.176Z,121.49
2022-11-18T12:30:34.116Z,123.81
2022-11-18T12:35:34.056Z,126.88
2022-11-18T12:40:33.988Z,127.84
2022-11-18T12:45:33.927Z,131.73
2022-11-18T12:50:33.851Z,133.61
2022-11-18T12:55:33.797Z,136.97
2022-11-18T13:00:33.749Z,138.89
2022-11-18T13:05:33.646Z,139.93
2022-11-18T13:10:33.625Z,140.62
2022-11-18T13:15:34.024Z,142.52
2022-11-18T13:20:33.516Z,144.35
2022-11-18T13:25:33.382Z,145.85
2022-11-18T13:30:33.332Z,146.61
2022-11-18T13:35:33.332Z,150.13
2022-11-18T13:40:33.199Z,153.83
2022-11-18T13:45:33.120Z,157.56
2022-11-18T13:50:33.056Z,157.27
2022-11-18T13:55:32.985Z,157.12
2022-11-18T14:00:32.962Z,158.45
2022-11-18T14:05:32.862Z,158.15
2022-11-18T14:10:36.732Z,157.42
2022-11-18T14:15:34.179Z,158.45
2022-11-18T14:20:32.663Z,158.75
2022-11-18T14:25:32.593Z,159.50
2022-11-18T14:30:32.531Z,159.35
2022-11-18T14:35:34.777Z,160.26
2022-11-18T14:40:32.391Z,160.26
2022-11-18T14:45:32.336Z,161.33
2022-11-18T14:50:32.264Z,163.36
2022-11-18T14:55:32.192Z,164.47
2022-11-18T15:00:32.198Z,165.77
2022-11-18T15:05:32.046Z,167.24
2022-11-18T15:10:31.999Z,167.41
2022-11-18T15:15:31.915Z,168.75
2022-11-18T15:20:31.862Z,169.60
2022-11-18T15:25:31.794Z,171.15
2022-11-18T15:30:31.736Z,171.67
2022-11-18T15:35:31.649Z,171.49
2022-11-18T15:40:31.587Z,172.72
2022-11-18T15:45:31.538Z,173.43
2022-11-18T15:50:31.479Z,175.05
2022-11-18T15:55:31.396Z,176.70
2022-11-18T16:00:31.341Z,178.19
2022-11-18T16:05:31.252Z,178.38
2022-11-18T16:10:31.206Z,180.87
2022-11-18T16:15:31.112Z,181.65
2022-11-18T16:20:31.111Z,181.84
2022-11-18T16:25:30.997Z,182.04
2022-11-18T16:30:30.963Z,182.04
2022-11-18T16:35:30.896Z,181.26
2022-11-18T16:40:30.807Z,182.24
2022-11-18T16:45:30.739Z,182.24
2022-11-18T16:50:30.679Z,183.03
2022-11-18T16:55:31.431Z,182.43
2022-11-18T17:00:58.307Z,183.62
2022-11-18T17:05:31.479Z,184.22
2022-11-18T17:10:30.399Z,184.63
2022-11-18T17:15:30.338Z,185.03
2022-11-18T17:20:30.299Z,185.44
2022-11-18T17:25:30.216Z,185.03
2022-11-18T17:30:30.149Z,185.85
2022-11-18T17:35:30.054Z,186.05
2022-11-18T17:40:30.032Z,186.67
2022-11-18T17:45:29.959Z,185.62
2022-11-18T17:50:29.905Z,185.62
2022-11-18T17:55:29.837Z,186.67
2022-11-18T18:00:29.768Z,187.19
2022-11-18T18:05:29.683Z,186.88
2022-11-18T18:10:29.635Z,187.41
2022-11-18T18:15:29.562Z,188.58
2022-11-18T18:20:29.501Z,189.33
2022-11-18T18:25:29.431Z,190.31
2022-11-18T18:30:29.375Z,190.42
2022-11-18T18:35:29.313Z,190.74
2022-11-18T18:40:29.245Z,192.07
2022-11-18T18:45:29.155Z,192.96
2022-11-18T18:50:29.919Z,194.43
2022-11-18T18:55:29.026Z,194.55
2022-11-18T19:00:28.993Z,195.24
2022-11-18T19:05:53.566Z,196.74
2022-11-18T19:10:29.847Z,196.74
2022-11-18T19:15:28.823Z,198.51
2022-11-18T19:20:29.654Z,197.68
2022-11-18T19:25:28.628Z,199.70
2022-11-18T19:30:28.555Z,200.18
2022-11-18T19:40:28.446Z,200.18
2022-11-18T19:45:28.394Z,201.64
2022-11-18T19:50:28.298Z,201.27
2022-11-18T19:55:28.245Z,200.67
2022-11-18T20:00:28.148Z,200.67
2022-11-18T20:05:28.120Z,200.42
2022-11-18T20:10:28.063Z,200.06
2022-11-18T20:15:27.948Z,199.82
2022-11-18T20:20:27.992Z,199.46
2022-11-18T20:25:27.834Z,199.94
2022-11-18T20:30:27.761Z,200.42
2022-11-18T20:35:27.714Z,200.54
2022-11-18T20:40:27.653Z,201.27
2022-11-18T20:45:27.550Z,201.40
2022-11-18T20:50:27.527Z,201.76
2022-11-18T20:55:27.554Z,202.01
2022-11-18T21:00:27.393Z,201.76
2022-11-18T21:05:27.275Z,201.64
2022-11-18T21:10:27.264Z,201.64
2022-11-18T21:15:27.168Z,201.52
2022-11-18T21:20:27.094Z,201.52
2022-11-18T21:25:27.036Z,201.64
2022-11-18T21:30:27.009Z,201.52
2022-11-18T21:35:26.903Z,201.40
2022-11-18T21:40:26.883Z,202.01
2022-11-18T21:45:26.789Z,202.50
2022-11-18T21:50:26.711Z,201.89
2022-11-18T21:55:26.655Z,201.40
2022-11-18T22:00:26.629Z,201.89
2022-11-18T22:05:26.508Z,201.40
2022-11-18T22:10:26.461Z,200.42
2022-11-18T22:15:26.382Z,200.06
2022-11-18T22:20:26.307Z,200.30
2022-11-18T22:25:26.257Z,199.94
2022-11-18T22:30:26.189Z,199.94
2022-11-18T22:35:26.083Z,200.42
2022-11-18T22:40:26.064Z,200.79
2022-11-18T22:45:25.974Z,201.15
2022-11-18T22:50:25.937Z,200.79
2022-11-18T22:55:25.843Z,201.27
2022-11-18T23:00:25.813Z,201.27
2022-11-18T23:05:25.706Z,200.79
2022-11-18T23:10:25.690Z,201.27
2022-11-18T23:15:25.586Z,202.01
2022-11-18T23:20:25.550Z,202.50
2022-11-18T23:25:25.456Z,202.63
2022-11-18T23:30:25.427Z,202.13
2022-11-18T23:35:25.344Z,201.89
2022-11-18T23:40:25.266Z,201.27
2022-11-18T23:45:25.191Z,201.27
2022-11-18T23:50:25.140Z,201.40
2022-11-18T23:55:25.045Z,201.03
